Time;durP1;ratioP1;P1;durP2;ratioP2;P2;SDS_P1;SDS_P2;PMS_P1;PMS_P2;Temp;Humidity;BMP_temperature;BMP_pressure;BME280_temperature;BME280_humidity;BME280_pressure;Samples;Min_cycle;Max_cycle;Signal;HPM_P1;HPM_P2
2021/07/24 05:02:48;;;;;;;6.03;4.30;;;;;;;23.90;52.62;94801.22;5049481;22;20517;-75
2021/07/24 05:05:14;;;;;;;4.72;3.70;;;;;;;23.82;54.67;94791.94;4990501;28;20033;-76
2021/07/24 05:07:40;;;;;;;3.85;3.08;;;;;;;25.61;50.44;94804.31;4990260;28;20021;-76
2021/07/24 05:10:08;;;;;;;3.85;2.90;;;;;;;26.16;49.05;94799.94;5015784;28;20116;-76
2021/07/24 05:12:35;;;;;;;4.57;4.05;;;;;;;25.06;50.84;94796.34;5005204;28;20717;-76
2021/07/24 05:15:01;;;;;;;5.45;3.55;;;;;;;27.67;45.71;94784.91;5007206;28;20039;-76
2021/07/24 05:17:26;;;;;;;5.30;3.85;;;;;;;29.34;41.83;94796.16;4974648;28;20026;-75
2021/07/24 05:19:52;;;;;;;6.88;4.15;;;;;;;30.47;39.76;94800.00;5027272;28;20505;-75
2021/07/24 05:22:17;;;;;;;5.57;4.03;;;;;;;28.58;42.67;94802.50;5024908;28;20410;-76
2021/07/24 05:24:44;;;;;;;4.70;3.47;;;;;;;29.74;39.99;94803.47;5009578;28;20025;-75
2021/07/24 05:27:10;;;;;;;3.25;2.95;;;;;;;30.75;38.80;94802.34;4993589;28;20032;-75
2021/07/24 05:29:36;;;;;;;3.70;3.10;;;;;;;31.12;38.63;94803.94;4991760;28;20463;-75
2021/07/24 05:32:01;;;;;;;3.05;2.83;;;;;;;29.28;41.27;94800.78;4992656;28;20052;-75
2021/07/24 05:34:27;;;;;;;2.50;2.30;;;;;;;31.04;38.69;94798.53;4990462;28;20072;-75
2021/07/24 05:36:52;;;;;;;3.97;2.78;;;;;;;28.45;44.19;94808.56;4984743;28;20403;-75
2021/07/24 05:39:18;;;;;;;3.00;2.80;;;;;;;30.33;39.69;94808.00;5025228;28;20018;-75
2021/07/24 05:41:43;;;;;;;5.53;3.17;;;;;;;31.06;38.65;94805.16;5009580;28;20532;-75
2021/07/24 05:44:12;;;;;;;3.58;2.88;;;;;;;30.89;37.69;94807.63;5007922;28;20029;-75
2021/07/24 05:46:37;;;;;;;3.08;2.83;;;;;;;31.34;37.31;94811.19;4992190;28;20457;-76
2021/07/24 05:49:03;;;;;;;3.92;2.90;;;;;;;31.23;37.39;94807.19;4993370;28;20045;-76
2021/07/24 05:51:28;;;;;;;7.30;3.28;;;;;;;30.91;37.40;94813.50;4990940;28;20028;-76
2021/07/24 05:53:54;;;;;;;4.03;2.80;;;;;;;31.71;37.17;94815.41;5008876;28;20149;-76
2021/07/24 05:56:19;;;;;;;3.10;2.80;;;;;;;32.34;34.63;94809.72;4986251;28;20029;-76
2021/07/24 05:58:45;;;;;;;3.00;2.80;;;;;;;31.41;35.95;94808.88;4973722;28;20503;-76
2021/07/24 06:01:11;;;;;;;2.83;2.60;;;;;;;32.10;34.88;94809.31;4971458;28;20080;-76
2021/07/24 06:03:36;;;;;;;3.13;2.92;;;;;;;32.37;35.50;94809.91;4972975;28;20076;-76
2021/07/24 06:06:02;;;;;;;4.90;3.03;;;;;;;33.79;33.28;94809.09;4972202;28;20104;-76
2021/07/24 06:08:28;;;;;;;11.40;3.45;;;;;;;29.21;38.81;94800.31;4988520;28;20034;-76
2021/07/24 06:11:00;;;;;;;6.95;3.60;;;;;;;30.62;37.52;94808.50;5007447;28;20038;-76
2021/07/24 06:13:29;;;;;;;120.68;86.72;;;;;;;29.64;39.40;94800.97;5005087;28;20093;-76
2021/07/24 06:15:55;;;;;;;23.48;17.73;;;;;;;29.63;39.71;94807.41;4974142;28;20018;-76
2021/07/24 06:18:23;;;;;;;10.82;5.50;;;;;;;26.88;44.12;94812.63;4971753;28;20427;-76
2021/07/24 06:20:49;;;;;;;4.93;4.22;;;;;;;27.47;43.62;94814.34;4957873;28;20422;-76
2021/07/24 06:23:17;;;;;;;10.77;6.65;;;;;;;32.35;35.50;94814.00;4988944;28;20036;-76
2021/07/24 06:25:43;;;;;;;17.98;16.08;;;;;;;28.33;42.34;94814.31;4987226;28;20048;-76
2021/07/24 06:28:09;;;;;;;5.57;4.18;;;;;;;32.28;34.49;94806.41;5009243;28;20040;-76
2021/07/24 06:30:35;;;;;;;4.60;3.35;;;;;;;34.54;32.08;94815.63;4977567;28;20121;-77
2021/07/24 06:33:00;;;;;;;7.95;3.92;;;;;;;33.43;35.02;94810.56;4989607;28;20097;-76
2021/07/24 06:35:26;;;;;;;4.80;3.08;;;;;;;32.65;34.71;94818.53;4987677;28;20096;-76
2021/07/24 06:37:52;;;;;;;3.30;3.10;;;;;;;34.05;33.38;94806.31;4973394;28;20064;-76
2021/07/24 06:40:17;;;;;;;3.35;2.70;;;;;;;31.10;36.70;94810.69;4956033;28;20099;-76
2021/07/24 06:42:43;;;;;;;3.15;2.95;;;;;;;29.99;40.21;94797.69;4972420;28;20018;-76
2021/07/24 06:45:09;;;;;;;4.20;3.50;;;;;;;32.33;36.20;94802.78;4957336;28;20030;-76
2021/07/24 06:47:34;;;;;;;3.42;3.17;;;;;;;33.69;33.86;94811.31;4987560;28;20033;-76
2021/07/24 06:50:01;;;;;;;3.70;3.30;;;;;;;33.51;34.08;94807.84;5007250;28;20026;-77
2021/07/24 06:52:26;;;;;;;3.58;2.88;;;;;;;33.20;35.29;94808.03;4991235;28;20100;-76
2021/07/24 06:54:52;;;;;;;3.55;3.10;;;;;;;33.23;33.48;94801.25;5009264;28;20092;-76
2021/07/24 06:57:17;;;;;;;3.92;3.45;;;;;;;33.71;32.44;94806.44;4974599;28;20037;-77
2021/07/24 06:59:42;;;;;;;6.13;3.30;;;;;;;31.29;35.59;94803.28;4979234;28;20648;-76
2021/07/24 07:02:10;;;;;;;7.53;3.50;;;;;;;32.06;34.39;94811.03;5003064;28;20577;-76
2021/07/24 07:04:35;;;;;;;4.05;3.22;;;;;;;30.24;38.57;94799.09;4976802;28;20038;-76
2021/07/24 07:07:01;;;;;;;3.72;3.35;;;;;;;27.85;41.58;94799.34;4990197;28;20029;-77
2021/07/24 07:09:26;;;;;;;3.20;3.00;;;;;;;26.97;44.42;94804.88;4991216;28;20133;-76
2021/07/24 07:11:55;;;;;;;5.13;3.17;;;;;;;29.26;39.94;94794.91;5024252;28;20032;-76
2021/07/24 07:14:21;;;;;;;3.80;3.42;;;;;;;27.71;43.79;94786.69;5004585;28;20037;-77
2021/07/24 07:16:49;;;;;;;5.70;3.13;;;;;;;28.58;41.58;94784.66;4994426;28;20479;-76
2021/07/24 07:19:14;;;;;;;;;;;;;;;33.08;34.70;94780.19;4972443;28;20469;-76
2021/07/24 07:21:40;;;;;;;3.33;2.97;;;;;;;31.58;36.51;94794.84;5009385;28;19970;-77
2021/07/24 07:24:05;;;;;;;3.35;3.05;;;;;;;33.34;34.11;94783.69;5007262;28;20151;-78
2021/07/24 07:26:32;;;;;;;3.13;2.92;;;;;;;35.18;31.57;94789.28;4975544;28;20494;-79
2021/07/24 07:29:02;;;;;;;4.57;3.10;;;;;;;29.87;40.04;94788.56;4995632;28;20053;-79
2021/07/24 07:31:28;;;;;;;3.35;3.05;;;;;;;27.88;42.47;94790.78;4992307;28;20338;-78
2021/07/24 07:33:54;;;;;;;4.80;4.40;;;;;;;27.40;43.79;94790.69;5011360;28;20120;-79
2021/07/24 07:36:19;;;;;;;4.25;3.78;;;;;;;28.48;43.45;94784.00;4991172;28;20026;-78
2021/07/24 07:38:44;;;;;;;23.55;21.42;;;;;;;28.40;44.21;94780.09;4988533;28;20029;-78
2021/07/24 07:41:12;;;;;;;4.65;3.50;;;;;;;28.13;43.89;94783.34;5006064;28;20032;-79
2021/07/24 07:43:37;;;;;;;7.07;3.17;;;;;;;28.38;42.50;94782.28;4984907;28;20186;-77
2021/07/24 07:46:03;;;;;;;3.58;3.28;;;;;;;28.51;44.45;94794.88;4985412;28;20034;-79
2021/07/24 07:48:28;;;;;;;4.88;3.28;;;;;;;28.65;44.14;94786.97;4975069;28;20026;-78
2021/07/24 07:50:54;;;;;;;3.05;2.83;;;;;;;29.27;43.66;94781.31;4994182;28;20093;-79
2021/07/24 07:53:19;;;;;;;5.70;3.25;;;;;;;28.56;43.60;94786.03;4967730;28;20032;-79
2021/07/24 07:55:45;;;;;;;5.93;3.10;;;;;;;28.55;44.74;94787.88;4993968;28;20033;-79
2021/07/24 07:58:11;;;;;;;4.55;3.35;;;;;;;28.72;44.72;94777.56;4992920;28;20426;-79
2021/07/24 08:00:37;;;;;;;4.22;3.50;;;;;;;28.57;43.78;94785.75;4992338;28;20061;-79
2021/07/24 08:03:02;;;;;;;3.72;3.38;;;;;;;27.61;44.29;94792.13;4993080;28;20503;-79
2021/07/24 08:05:29;;;;;;;4.13;3.53;;;;;;;27.52;49.02;94793.81;4991271;28;20521;-79
2021/07/24 08:07:54;;;;;;;4.15;3.75;;;;;;;27.73;45.31;94779.25;5007053;28;20029;-79
2021/07/24 08:10:20;;;;;;;5.65;3.47;;;;;;;28.76;40.56;94778.59;5000229;28;20080;-79
2021/07/24 08:12:46;;;;;;;3.30;3.00;;;;;;;28.09;43.35;94778.88;4986274;28;20491;-81
2021/07/24 08:15:11;;;;;;;4.18;3.15;;;;;;;28.45;42.39;94788.03;4978348;28;20025;-80
2021/07/24 08:17:37;;;;;;;3.55;3.25;;;;;;;27.54;42.41;94772.25;5010429;28;20017;-78
2021/07/24 08:20:04;;;;;;;6.32;3.95;;;;;;;27.51;43.63;94776.28;4978314;28;20029;-81
2021/07/24 08:22:30;;;;;;;3.65;3.35;;;;;;;28.47;42.89;94775.22;4976322;28;20120;-80
2021/07/24 08:24:55;;;;;;;3.67;3.38;;;;;;;27.65;43.78;94766.53;4995066;28;20391;-77
2021/07/24 08:27:21;;;;;;;4.22;3.83;;;;;;;28.07;43.45;94770.38;4992291;28;20478;-80
2021/07/24 08:29:46;;;;;;;3.78;3.47;;;;;;;26.91;47.04;94768.72;5029030;28;20040;-78
2021/07/24 08:32:11;;;;;;;4.85;3.85;;;;;;;26.93;47.34;94763.94;4976004;28;20025;-79
2021/07/24 08:34:37;;;;;;;6.40;3.65;;;;;;;28.45;45.46;94756.03;4978257;28;20033;-78
2021/07/24 08:37:03;;;;;;;3.58;3.28;;;;;;;27.92;43.48;94766.00;4975930;28;20124;-80
2021/07/24 08:39:28;;;;;;;4.18;3.80;;;;;;;26.63;45.82;94771.03;4992623;28;20026;-78
2021/07/24 08:41:54;;;;;;;4.97;3.63;;;;;;;27.08;45.50;94771.81;5008937;28;20026;-79
2021/07/24 08:44:19;;;;;;;4.22;3.63;;;;;;;28.73;44.38;94773.03;4973253;28;20029;-78
2021/07/24 08:46:45;;;;;;;4.35;3.67;;;;;;;29.18;40.09;94766.22;4990947;28;20109;-79
2021/07/24 08:49:10;;;;;;;4.60;3.90;;;;;;;26.79;43.96;94768.25;4989050;28;20030;-79
2021/07/24 08:51:37;;;;;;;4.60;4.20;;;;;;;26.16;46.60;94760.09;4974819;28;20032;-79
2021/07/24 08:54:04;;;;;;;4.20;3.90;;;;;;;26.52;44.39;94777.44;4973212;28;20029;-81
2021/07/24 08:56:31;;;;;;;4.18;3.80;;;;;;;26.98;44.06;94767.34;4990393;28;20434;-78
2021/07/24 08:58:58;;;;;;;5.05;3.80;;;;;;;28.40;43.19;94768.63;4990698;28;20026;-78
2021/07/24 09:01:25;;;;;;;4.47;3.85;;;;;;;27.81;45.86;94782.34;4973509;28;20091;-78
2021/07/24 09:03:51;;;;;;;4.28;3.97;;;;;;;26.77;47.32;94784.50;4975044;28;20026;-79
2021/07/24 09:06:21;;;;;;;4.88;3.78;;;;;;;26.11;50.05;94771.50;4972866;28;20039;-78
2021/07/24 09:08:53;;;;;;;4.20;3.90;;;;;;;26.02;50.75;94769.69;4988833;28;20037;-80
2021/07/24 09:11:19;;;;;;;4.95;4.45;;;;;;;25.28;52.54;94780.94;4991637;28;20053;-81
2021/07/24 09:13:44;;;;;;;5.40;3.88;;;;;;;25.38;53.11;94785.44;5010114;28;20029;-79
2021/07/24 09:16:10;;;;;;;4.18;3.88;;;;;;;25.05;52.82;94776.16;4993514;28;20021;-83
2021/07/24 09:18:36;;;;;;;8.65;4.43;;;;;;;24.37;56.00;94804.63;4992343;28;20079;-81
2021/07/24 09:21:02;;;;;;;8.00;4.97;;;;;;;23.66;58.18;94807.97;5010352;28;20112;-82
2021/07/24 09:23:29;;;;;;;4.43;4.07;;;;;;;23.91;58.99;94808.91;5008190;28;20119;-79
2021/07/24 09:25:54;;;;;;;7.90;4.43;;;;;;;23.35;58.29;94813.00;5010511;28;20152;-78
2021/07/24 09:28:20;;;;;;;5.70;4.75;;;;;;;23.48;58.27;94803.88;4991752;28;20116;-82
2021/07/24 09:30:45;;;;;;;4.68;4.32;;;;;;;23.69;58.21;94815.41;4993728;28;20029;-82
2021/07/24 09:33:12;;;;;;;5.25;3.83;;;;;;;24.68;56.21;94808.19;4975941;28;20033;-79
2021/07/24 09:35:45;;;;;;;5.50;3.90;;;;;;;24.62;56.44;94807.38;5009452;28;20108;-76
2021/07/24 09:38:14;;;;;;;4.78;4.32;;;;;;;24.31;54.77;94807.53;4968514;28;20041;-76
2021/07/24 09:40:41;;;;;;;4.50;4.10;;;;;;;25.01;54.01;94805.06;4972066;28;20470;-80
2021/07/24 09:43:27;;;;;;;5.68;4.18;;;;;;;24.91;53.31;94817.53;4957943;28;20574;-81
2021/07/24 09:46:12;;;;;;;4.95;4.30;;;;;;;25.39;52.92;94813.56;4970892;28;20454;-78
2021/07/24 09:48:38;;;;;;;5.68;4.22;;;;;;;25.29;52.83;94821.53;5006122;28;20042;-77
2021/07/24 09:51:04;;;;;;;3.80;3.25;;;;;;;25.30;53.13;94821.25;4990175;28;20029;-77
2021/07/24 09:53:39;;;;;;;4.22;3.92;;;;;;;25.24;52.57;94821.53;5005780;28;20029;-77
2021/07/24 09:56:05;;;;;;;4.60;4.20;;;;;;;25.21;51.89;94822.84;5007981;28;20522;-78
2021/07/24 09:58:30;;;;;;;4.53;4.13;;;;;;;25.69;51.77;94819.66;4971633;28;20021;-79
2021/07/24 10:01:06;;;;;;;6.15;4.28;;;;;;;25.00;52.27;94831.84;4989686;28;20053;-80
2021/07/24 10:03:32;;;;;;;4.65;4.35;;;;;;;24.80;53.93;94821.97;4973145;28;20530;-78
2021/07/24 10:05:59;;;;;;;5.70;4.30;;;;;;;25.30;52.80;94813.28;5006424;28;20034;-78
2021/07/24 10:08:24;;;;;;;9.60;4.45;;;;;;;25.51;53.71;94827.38;4987108;28;20037;-78
2021/07/24 10:10:51;;;;;;;5.63;4.38;;;;;;;26.17;52.01;94820.09;4990951;28;20387;-79
2021/07/24 10:13:16;;;;;;;274.63;156.32;;;;;;;26.55;50.44;94814.09;4993526;28;20029;-78
2021/07/24 10:15:43;;;;;;;6.38;5.75;;;;;;;26.26;52.20;94807.88;4990571;28;20560;-78
2021/07/24 10:18:10;;;;;;;6.63;6.00;;;;;;;26.77;50.01;94792.47;5009670;28;20411;-78
2021/07/24 10:20:39;;;;;;;4.95;4.10;;;;;;;26.52;48.53;94800.59;4991426;28;20160;-78
2021/07/24 10:23:04;;;;;;;11.48;10.30;;;;;;;25.51;50.26;94787.59;4992503;28;20095;-78
2021/07/24 10:25:38;;;;;;;4.28;3.97;;;;;;;25.18;49.89;94802.16;5009082;28;20121;-79
2021/07/24 10:28:03;;;;;;;6.10;4.55;;;;;;;25.51;50.17;94798.22;4991689;28;20420;-82
2021/07/24 10:30:29;;;;;;;4.65;3.90;;;;;;;25.31;51.34;94806.94;4989383;28;20033;-78
2021/07/24 10:32:55;;;;;;;8.43;7.72;;;;;;;25.75;51.06;94799.22;4988664;28;20030;-78
2021/07/24 10:35:37;;;;;;;16.50;14.98;;;;;;;25.81;49.25;94806.13;4977827;28;20124;-78
2021/07/24 10:38:32;;;;;;;13.15;11.82;;;;;;;25.53;50.07;94799.53;4998471;28;20123;-78
2021/07/24 10:41:33;;;;;;;30.92;26.15;;;;;;;25.25;50.56;94807.19;4999999;28;20160;-78
2021/07/24 10:44:12;;;;;;;20.25;16.13;;;;;;;24.89;51.46;94811.69;5026396;28;20119;-77
2021/07/24 10:46:40;;;;;;;;;;;;;;;24.47;52.21;94817.09;4985876;28;20474;-79
2021/07/24 10:49:06;;;;;;;39.23;33.60;;;;;;;24.21;55.78;94818.09;5019494;28;20385;-76
2021/07/24 10:51:52;;;;;;;38.38;27.05;;;;;;;24.43;57.33;94811.56;4990882;28;20040;-76
2021/07/24 10:54:17;;;;;;;54.88;38.95;;;;;;;24.69;57.43;94815.09;5003298;28;20038;-78
2021/07/24 10:56:43;;;;;;;20.77;13.88;;;;;;;24.60;58.06;94816.63;5009758;28;20034;-79
2021/07/24 10:59:29;;;;;;;17.10;13.43;;;;;;;24.90;56.47;94822.03;5005931;28;20029;-77
2021/07/24 11:01:54;;;;;;;108.55;69.43;;;;;;;24.70;57.90;94823.78;5009291;28;20044;-80
2021/07/24 11:04:35;;;;;;;19.67;14.25;;;;;;;24.61;56.14;94813.72;5029459;28;20029;-81
2021/07/24 11:07:12;;;;;;;44.05;30.85;;;;;;;24.47;54.41;94809.97;5026918;28;20029;-80
2021/07/24 11:09:41;;;;;;;15.63;11.73;;;;;;;24.49;55.52;94809.72;5000555;28;20029;-80
2021/07/24 11:12:10;;;;;;;;;;;;;;;24.30;55.55;94811.25;5008006;28;20037;-79
2021/07/24 11:14:41;;;;;;;11.45;9.77;;;;;;;24.30;56.75;94803.28;5010768;28;20286;-80
2021/07/24 11:17:06;;;;;;;11.50;7.50;;;;;;;24.45;57.58;94800.69;5012297;28;20055;-79
2021/07/24 11:19:39;;;;;;;5.60;5.10;;;;;;;24.46;56.29;94804.94;5027188;28;20543;-79
2021/07/24 11:22:14;;;;;;;4.78;4.47;;;;;;;25.02;54.23;94801.38;4995350;28;20029;-79
2021/07/24 11:24:41;;;;;;;6.55;5.95;;;;;;;25.71;50.92;94800.03;5009162;28;20021;-80
2021/07/24 11:27:07;;;;;;;5.25;4.75;;;;;;;25.85;48.28;94791.22;5007353;28;20059;-81
2021/07/24 11:29:32;;;;;;;16.38;12.45;;;;;;;25.85;47.86;94790.47;5005867;28;20111;-80
2021/07/24 11:32:00;;;;;;;5.57;4.70;;;;;;;26.12;49.28;94785.59;5011476;28;20518;-79
2021/07/24 11:34:26;;;;;;;5.15;4.85;;;;;;;26.02;50.51;94783.75;4990805;28;20034;-80
2021/07/24 11:36:51;;;;;;;8.63;7.53;;;;;;;26.65;49.05;94778.72;4974661;28;20053;-79
2021/07/24 11:39:27;;;;;;;5.22;4.82;;;;;;;26.50;45.87;94779.59;4992389;28;20026;-80
2021/07/24 11:41:52;;;;;;;4.97;4.57;;;;;;;26.50;44.74;94776.13;4974294;28;20030;-80
2021/07/24 11:44:24;;;;;;;5.50;4.95;;;;;;;26.04;45.87;94778.19;4974769;28;20030;-79
2021/07/24 11:46:57;;;;;;;5.78;4.60;;;;;;;26.85;44.70;94781.28;5016152;28;20117;-79
2021/07/24 11:49:23;;;;;;;5.60;5.10;;;;;;;25.54;47.01;94779.91;5029668;28;20493;-80
2021/07/24 11:51:48;;;;;;;7.07;5.85;;;;;;;25.41;47.30;94772.44;4994637;28;20025;-81
2021/07/24 11:54:13;;;;;;;7.28;5.72;;;;;;;25.04;47.15;94764.00;4994252;28;20033;-79
2021/07/24 11:56:40;;;;;;;10.55;5.57;;;;;;;25.60;48.74;94770.06;4995413;28;20030;-80
2021/07/24 11:59:05;;;;;;;4.97;4.57;;;;;;;26.03;45.98;94764.13;5026443;28;20017;-79
2021/07/24 12:01:31;;;;;;;5.60;5.20;;;;;;;25.98;44.97;94761.47;4992135;28;20450;-79
2021/07/24 12:04:09;;;;;;;5.40;4.43;;;;;;;26.41;44.88;94757.31;5008911;28;20033;-79
2021/07/24 12:06:36;;;;;;;5.82;4.40;;;;;;;26.89;41.59;94757.59;4995032;28;20034;-80
2021/07/24 12:09:01;;;;;;;6.63;4.53;;;;;;;25.61;43.33;94756.53;4992653;28;20090;-80
2021/07/24 12:11:27;;;;;;;5.13;4.72;;;;;;;26.76;43.76;94745.69;4993347;28;20116;-80
2021/07/24 12:14:02;;;;;;;6.07;5.57;;;;;;;27.50;44.34;94749.91;5010979;28;20041;-77
2021/07/24 12:16:37;;;;;;;5.22;4.82;;;;;;;27.22;42.44;94741.63;4992346;28;20416;-78
2021/07/24 12:19:16;;;;;;;4.53;4.22;;;;;;;27.05;42.92;94745.75;4991413;28;20488;-79
2021/07/24 12:21:42;;;;;;;5.40;4.95;;;;;;;26.76;42.52;94737.72;4974276;28;20022;-80
2021/07/24 12:24:08;;;;;;;5.00;4.60;;;;;;;27.02;42.60;94735.69;4993174;28;20071;-80
2021/07/24 12:26:37;;;;;;;5.20;4.63;;;;;;;27.89;42.39;94713.28;5028530;28;20051;-82
2021/07/24 12:29:08;;;;;;;5.47;4.97;;;;;;;27.35;43.63;94734.88;4992880;28;20026;-80
2021/07/24 12:31:41;;;;;;;5.90;5.35;;;;;;;26.96;43.78;94742.13;5010534;28;20042;-79
2021/07/24 12:34:16;;;;;;;6.22;5.15;;;;;;;26.27;46.24;94735.06;5009083;28;20117;-77
2021/07/24 12:36:58;;;;;;;6.45;5.28;;;;;;;26.78;45.86;94734.78;4994668;28;20025;-79
2021/07/24 12:39:25;;;;;;;5.65;5.18;;;;;;;26.84;43.47;94718.56;4992985;28;20036;-78
2021/07/24 12:42:04;;;;;;;6.03;5.30;;;;;;;27.19;43.83;94717.47;4992045;28;20086;-79
2021/07/24 12:44:29;;;;;;;;;;;;;;;27.49;41.52;94725.16;4985285;28;20471;-79
2021/07/24 12:47:15;;;;;;;6.30;4.80;;;;;;;27.73;43.34;94706.56;4988417;28;19932;-75
2021/07/24 12:49:42;;;;;;;5.20;4.82;;;;;;;27.31;41.17;94719.72;4969768;28;20113;-77
2021/07/24 12:52:35;;;;;;;4.95;4.55;;;;;;;27.30;43.63;94712.81;4993425;28;20045;-78
2021/07/24 12:55:11;;;;;;;7.97;5.40;;;;;;;27.57;39.85;94719.25;5008834;28;20022;-75
2021/07/24 12:57:37;;;;;;;6.05;5.30;;;;;;;27.28;39.71;94718.44;5010527;28;20037;-77
2021/07/24 13:00:09;;;;;;;5.60;4.85;;;;;;;27.04;41.08;94714.91;5026074;28;20033;-76
2021/07/24 13:02:35;;;;;;;4.65;4.13;;;;;;;27.01;42.42;94723.44;5010173;28;20131;-77
2021/07/24 13:05:00;;;;;;;6.57;5.03;;;;;;;27.35;42.92;94720.78;5009336;28;20052;-76
2021/07/24 13:07:26;;;;;;;5.60;5.00;;;;;;;27.42;41.89;94732.66;5027084;28;20487;-77
2021/07/24 13:09:55;;;;;;;7.75;5.18;;;;;;;27.35;43.63;94744.72;5010024;28;20029;-78
2021/07/24 13:12:21;;;;;;;5.22;4.72;;;;;;;25.79;48.41;94730.47;5007987;28;20018;-77
2021/07/24 13:14:47;;;;;;;5.57;5.03;;;;;;;25.67;47.93;94720.16;5010621;28;20454;-77
2021/07/24 13:17:12;;;;;;;4.75;4.45;;;;;;;25.72;50.69;94727.31;5008244;28;20033;-78
2021/07/24 13:19:38;;;;;;;5.32;4.82;;;;;;;25.09;50.14;94735.63;5028017;28;20088;-75
2021/07/24 13:22:03;;;;;;;5.53;5.10;;;;;;;25.21;51.14;94735.34;5025978;28;20466;-82
2021/07/24 13:24:31;;;;;;;5.22;4.32;;;;;;;25.64;48.15;94736.63;5027935;28;20410;-75
2021/07/24 13:29:40;;;;;;;4.40;4.00;;;;;;;25.07;47.69;94742.25;5011083;28;20463;-78
2021/07/24 13:32:06;;;;;;;4.78;3.97;;;;;;;24.65;46.88;94734.53;5027854;28;20021;-85
2021/07/24 13:34:32;;;;;;;7.15;4.32;;;;;;;24.81;47.70;94736.13;4991484;28;20468;-79
2021/07/24 13:36:57;;;;;;;7.97;4.70;;;;;;;24.63;48.90;94741.91;5009691;28;20037;-75
2021/07/24 13:39:23;;;;;;;4.85;4.40;;;;;;;24.82;49.83;94734.31;5007803;28;20029;-75
2021/07/24 13:41:48;;;;;;;5.28;4.78;;;;;;;24.65;50.65;94745.13;5009734;28;20048;-76
2021/07/24 13:44:14;;;;;;;5.60;5.10;;;;;;;24.44;51.19;94751.41;5026894;28;20025;-75
2021/07/24 13:46:41;;;;;;;5.53;4.63;;;;;;;24.49;49.06;94751.44;4975967;28;20050;-75
2021/07/24 13:49:06;;;;;;;5.85;4.18;;;;;;;24.85;49.95;94747.78;5009430;28;20032;-74
2021/07/24 13:51:31;;;;;;;4.57;4.28;;;;;;;24.27;49.04;94749.00;5007316;28;20033;-76
2021/07/24 13:53:57;;;;;;;5.50;5.10;;;;;;;24.10;49.44;94751.03;5009903;28;20137;-75
2021/07/24 13:56:23;;;;;;;4.72;4.32;;;;;;;24.62;49.15;94756.25;4990870;28;20418;-74
2021/07/24 13:58:48;;;;;;;5.32;4.28;;;;;;;25.18;47.63;94754.44;5009731;28;20033;-75
2021/07/24 14:01:14;;;;;;;4.40;4.10;;;;;;;25.30;47.02;94754.19;4991716;28;20049;-77
2021/07/24 14:03:39;;;;;;;4.72;4.32;;;;;;;25.13;45.85;94751.78;5008952;28;20037;-75
2021/07/24 14:06:04;;;;;;;4.97;4.57;;;;;;;25.05;45.75;94744.34;5009372;28;20045;-77
2021/07/24 14:08:30;;;;;;;4.90;4.60;;;;;;;25.28;45.40;94754.44;5006759;28;20037;-79
2021/07/24 14:10:57;;;;;;;5.05;4.20;;;;;;;25.32;44.66;94749.38;5010033;28;20076;-77
2021/07/24 14:13:22;;;;;;;4.25;3.85;;;;;;;25.94;44.63;94756.97;5006817;28;20029;-80
2021/07/24 14:15:50;;;;;;;4.78;4.38;;;;;;;25.54;43.57;94747.25;5027469;28;20032;-79
2021/07/24 14:18:16;;;;;;;4.47;4.18;;;;;;;25.86;44.44;94750.34;4986767;28;20092;-79
2021/07/24 14:20:43;;;;;;;5.18;4.68;;;;;;;25.53;43.99;94761.56;4994051;28;20030;-78
2021/07/24 14:23:09;;;;;;;4.57;3.97;;;;;;;25.91;42.30;94752.97;4972095;28;20033;-77
2021/07/24 14:25:34;;;;;;;6.93;4.00;;;;;;;25.89;41.48;94759.63;5003642;28;20120;-77
2021/07/24 14:28:00;;;;;;;3.90;3.60;;;;;;;25.45;41.06;94756.81;5026554;28;20087;-81
2021/07/24 14:30:25;;;;;;;4.25;3.95;;;;;;;25.52;41.24;94747.53;4986223;28;20041;-78
2021/07/24 14:32:51;;;;;;;4.78;3.88;;;;;;;25.34;41.34;94736.66;5008485;28;20029;-84
2021/07/24 14:35:16;;;;;;;4.00;3.70;;;;;;;25.67;41.54;94747.50;5024434;28;20036;-76
2021/07/24 14:37:42;;;;;;;4.78;3.85;;;;;;;25.91;41.97;94752.97;4992044;28;20036;-80
2021/07/24 14:40:08;;;;;;;6.05;3.70;;;;;;;25.86;43.74;94745.06;5007566;28;20091;-79
2021/07/24 14:42:33;;;;;;;7.03;3.92;;;;;;;25.88;42.22;94747.44;5025746;28;20037;-77
2021/07/24 14:44:59;;;;;;;5.13;3.67;;;;;;;25.98;40.76;94748.19;4988952;28;20029;-77
2021/07/24 14:47:24;;;;;;;3.88;3.58;;;;;;;25.85;39.59;94742.69;5024408;28;20034;-77
2021/07/24 14:49:50;;;;;;;3.72;3.42;;;;;;;25.77;39.58;94743.22;5007640;28;20509;-77
2021/07/24 14:52:15;;;;;;;4.07;3.67;;;;;;;25.99;40.57;94738.38;5001744;28;20025;-78
2021/07/24 14:54:41;;;;;;;7.70;4.63;;;;;;;25.87;40.09;94740.53;5002579;28;20037;-81
2021/07/24 14:57:06;;;;;;;3.92;3.63;;;;;;;25.90;40.01;94742.66;5005565;28;20041;-79
2021/07/24 14:59:33;;;;;;;3.50;3.30;;;;;;;26.00;39.54;94729.34;5025897;28;20442;-78
2021/07/24 15:01:59;;;;;;;8.10;4.10;;;;;;;25.90;40.65;94735.50;4990372;28;20045;-78
2021/07/24 15:04:24;;;;;;;4.30;3.80;;;;;;;25.28;43.61;94741.16;5018374;28;20033;-82
2021/07/24 15:06:50;;;;;;;3.40;3.20;;;;;;;25.45;44.37;94728.41;4976307;28;20514;-77
2021/07/24 15:09:15;;;;;;;4.25;3.85;;;;;;;25.32;44.13;94728.97;4981299;28;20025;-79
2021/07/24 15:11:43;;;;;;;8.48;4.10;;;;;;;25.44;44.38;94724.16;5007852;28;20478;-78
2021/07/24 15:14:09;;;;;;;3.80;3.50;;;;;;;25.54;44.27;94724.19;4990996;28;20094;-79
2021/07/24 15:16:34;;;;;;;4.18;3.88;;;;;;;25.13;43.27;94727.94;5009087;28;20645;-80
2021/07/24 15:19:00;;;;;;;4.35;3.97;;;;;;;25.21;44.50;94727.38;4992689;28;20017;-78
2021/07/24 15:21:25;;;;;;;4.25;3.83;;;;;;;25.41;43.70;94730.00;5011428;28;20025;-78
2021/07/24 15:23:51;;;;;;;4.82;4.05;;;;;;;25.43;42.94;94729.75;5029467;28;20026;-83
2021/07/24 15:26:17;;;;;;;4.55;4.20;;;;;;;25.26;44.71;94727.38;4993834;28;20504;-77
2021/07/24 15:28:43;;;;;;;4.18;3.50;;;;;;;25.28;44.93;94735.88;4995777;28;20462;-77
2021/07/24 15:31:09;;;;;;;3.85;3.55;;;;;;;25.43;46.09;94727.09;4993776;28;20029;-77
2021/07/24 15:33:34;;;;;;;6.75;3.90;;;;;;;25.28;47.82;94735.88;4995668;28;20026;-78
2021/07/24 15:35:59;;;;;;;4.30;3.90;;;;;;;25.00;47.62;94723.16;4993630;28;20029;-79
2021/07/24 15:38:25;;;;;;;4.45;4.13;;;;;;;24.86;49.27;94741.44;4994782;28;20450;-83
2021/07/24 15:40:51;;;;;;;4.25;3.85;;;;;;;24.66;49.70;94728.94;4993946;28;20033;-79
2021/07/24 15:43:16;;;;;;;4.20;3.83;;;;;;;24.58;49.90;94729.47;5010630;28;20029;-78
2021/07/24 15:45:41;;;;;;;6.55;4.90;;;;;;;24.55;50.17;94743.25;5010535;28;20030;-79
2021/07/24 15:48:07;;;;;;;8.15;3.78;;;;;;;24.62;50.39;94727.91;5008487;28;20025;-78
2021/07/24 15:50:34;;;;;;;4.85;4.45;;;;;;;24.55;50.60;94730.00;4993851;28;20032;-82
2021/07/24 15:52:59;;;;;;;4.32;4.03;;;;;;;24.88;50.79;94739.34;4991310;28;20060;-76
2021/07/24 15:55:25;;;;;;;4.65;4.25;;;;;;;24.85;50.37;94736.44;5027180;28;20034;-76
2021/07/24 15:57:50;;;;;;;6.18;3.83;;;;;;;24.62;49.76;94730.56;5009542;28;20083;-79
2021/07/24 16:00:16;;;;;;;7.20;4.40;;;;;;;24.69;50.14;94734.78;4991994;28;20050;-78
2021/07/24 16:02:42;;;;;;;8.00;4.30;;;;;;;24.65;49.42;94745.13;4990742;28;20647;-77
2021/07/24 16:05:08;;;;;;;5.82;4.60;;;;;;;24.59;50.53;94741.63;5008675;28;20063;-77
2021/07/24 16:07:33;;;;;;;5.57;4.57;;;;;;;24.69;51.58;94740.88;4973834;28;20048;-76
2021/07/24 16:09:59;;;;;;;5.88;4.95;;;;;;;24.60;50.77;94747.75;5001857;28;20029;-78
2021/07/24 16:12:24;;;;;;;5.80;4.25;;;;;;;24.52;51.14;94748.28;5010061;28;20029;-75
2021/07/24 16:14:50;;;;;;;4.45;3.90;;;;;;;24.36;51.03;94744.00;4990793;28;20164;-80
2021/07/24 16:17:18;;;;;;;4.45;4.05;;;;;;;24.28;52.20;94740.00;4993651;28;20033;-76
2021/07/24 16:19:44;;;;;;;4.50;4.07;;;;;;;24.33;52.30;94749.81;4994758;28;20106;-76
2021/07/24 16:22:10;;;;;;;4.90;4.50;;;;;;;24.15;51.49;94751.06;4993169;28;20116;-81
2021/07/24 16:24:35;;;;;;;4.32;4.03;;;;;;;24.07;52.33;94746.25;4994146;28;20125;-85
2021/07/24 16:27:01;;;;;;;5.65;5.15;;;;;;;23.96;52.78;94757.84;4992980;28;20028;-83
2021/07/24 16:29:26;;;;;;;5.32;4.82;;;;;;;23.81;52.98;94749.84;4978707;28;20037;-85
2021/07/24 16:31:52;;;;;;;5.05;4.65;;;;;;;23.84;53.00;94744.03;4991891;28;20634;-77
2021/07/24 16:34:17;;;;;;;5.35;4.85;;;;;;;23.82;53.06;94754.91;4994754;28;20534;-83
2021/07/24 16:36:45;;;;;;;5.93;4.88;;;;;;;23.68;53.19;94750.31;4991991;28;20080;-88
2021/07/24 16:39:10;;;;;;;5.55;5.15;;;;;;;23.63;51.90;94753.75;5011111;28;20034;-86